createdAt,value
2023-04-24T00:00:41.891Z,13.51
2023-04-24T00:03:29.005Z,13.51
2023-04-24T00:06:14.741Z,13.55
2023-04-24T00:09:01.822Z,13.55
2023-04-24T00:11:47.317Z,13.55
2023-04-24T00:14:32.667Z,13.43
2023-04-24T00:17:20.860Z,13.54
2023-04-24T00:20:07.813Z,13.55
2023-04-24T00:22:53.176Z,13.60
2023-04-24T00:25:39.108Z,13.65
2023-04-24T00:28:24.623Z,13.60
2023-04-24T00:31:10.163Z,13.58
2023-04-24T00:33:55.820Z,13.53
2023-04-24T00:36:41.492Z,13.46
2023-04-24T00:39:27.370Z,13.38
2023-04-24T00:42:12.927Z,13.36
2023-04-24T00:44:58.702Z,13.39
2023-04-24T00:47:46.373Z,13.38
2023-04-24T00:50:32.189Z,13.38
2023-04-24T00:53:17.479Z,13.38
2023-04-24T00:56:03.652Z,13.37
2023-04-24T00:58:49.243Z,13.43
2023-04-24T01:01:35.662Z,13.50
2023-04-24T01:04:21.400Z,13.49
2023-04-24T01:07:11.615Z,13.49
2023-04-24T01:09:57.283Z,13.53
2023-04-24T01:12:43.097Z,13.51
2023-04-24T01:15:28.321Z,13.54
2023-04-24T01:18:14.935Z,13.45
2023-04-24T01:21:03.694Z,13.38
2023-04-24T01:23:49.324Z,13.29
2023-04-24T01:26:37.661Z,13.23
2023-04-24T01:29:23.312Z,13.16
2023-04-24T01:32:08.600Z,13.11
2023-04-24T01:34:53.986Z,13.04
2023-04-24T01:37:39.740Z,12.95
2023-04-24T01:40:25.179Z,12.96
2023-04-24T01:43:10.676Z,12.88
2023-04-24T01:45:56.020Z,12.88
2023-04-24T01:48:42.234Z,12.84
2023-04-24T01:51:27.967Z,12.76
2023-04-24T01:54:13.937Z,12.72
2023-04-24T01:56:59.237Z,12.62
2023-04-24T01:59:44.981Z,12.55
2023-04-24T02:02:31.020Z,12.48
2023-04-24T02:05:16.776Z,12.45
2023-04-24T02:08:02.447Z,12.46
2023-04-24T02:10:47.900Z,12.40
2023-04-24T02:13:33.347Z,12.31
2023-04-24T02:16:18.866Z,12.33
2023-04-24T02:19:04.592Z,12.31
2023-04-24T02:21:50.127Z,12.30
2023-04-24T02:24:35.541Z,12.31
2023-04-24T02:27:21.127Z,12.30
2023-04-24T02:30:07.179Z,12.23
2023-04-24T02:32:52.624Z,12.20
2023-04-24T02:35:38.289Z,12.18
2023-04-24T02:38:23.732Z,12.15
2023-04-24T02:41:09.247Z,12.09
2023-04-24T02:43:55.778Z,12.05
2023-04-24T02:46:42.864Z,11.91
2023-04-24T02:49:28.097Z,11.89
2023-04-24T02:52:14.161Z,11.91
2023-04-24T02:54:59.836Z,11.96
2023-04-24T02:57:45.094Z,11.93
2023-04-24T03:00:30.868Z,11.95
2023-04-24T03:03:16.278Z,11.90
2023-04-24T03:06:02.544Z,11.77
2023-04-24T03:08:48.220Z,11.78
2023-04-24T03:11:33.625Z,11.77
2023-04-24T03:14:19.032Z,11.79
2023-04-24T03:17:04.409Z,11.78
2023-04-24T03:19:49.692Z,11.67
2023-04-24T03:22:35.509Z,11.50
2023-04-24T03:25:21.173Z,11.46
2023-04-24T03:28:06.616Z,11.40
2023-04-24T03:30:52.925Z,11.32
2023-04-24T03:33:38.352Z,11.23
2023-04-24T03:36:23.678Z,11.23
2023-04-24T03:39:09.188Z,11.11
2023-04-24T03:41:54.541Z,11.05
2023-04-24T03:44:40.055Z,10.89
2023-04-24T03:47:25.471Z,10.94
2023-04-24T03:50:12.908Z,10.87
2023-04-24T03:52:58.838Z,10.78
2023-04-24T03:55:44.680Z,10.70
2023-04-24T03:58:30.373Z,10.71
2023-04-24T04:01:17.022Z,10.70
2023-04-24T04:04:02.907Z,10.74
2023-04-24T04:06:48.313Z,10.82
2023-04-24T04:09:34.000Z,10.82
2023-04-24T04:12:19.387Z,10.80
2023-04-24T04:15:06.806Z,10.77
2023-04-24T04:17:52.582Z,10.76
2023-04-24T04:20:38.168Z,10.70
2023-04-24T04:23:24.318Z,10.68
2023-04-24T04:26:09.953Z,10.66
2023-04-24T04:28:55.368Z,10.69
2023-04-24T04:31:41.183Z,10.70
2023-04-24T04:34:26.866Z,10.71
2023-04-24T04:37:13.441Z,10.73
2023-04-24T04:40:01.730Z,10.79
2023-04-24T04:42:47.114Z,10.77
2023-04-24T04:45:33.610Z,10.80
2023-04-24T04:48:19.633Z,10.80
2023-04-24T04:51:05.500Z,10.82
2023-04-24T04:53:51.310Z,10.81
2023-04-24T04:56:38.324Z,10.84
2023-04-24T04:59:23.914Z,10.87
2023-04-24T05:02:09.788Z,10.92
2023-04-24T05:04:55.581Z,10.93
2023-04-24T05:07:41.430Z,11.01
2023-04-24T05:10:26.762Z,11.01
2023-04-24T05:13:14.026Z,11.13
2023-04-24T05:16:00.011Z,11.16
2023-04-24T05:18:45.745Z,11.27
2023-04-24T05:21:31.736Z,11.33
2023-04-24T05:24:17.628Z,11.37
2023-04-24T05:27:03.842Z,11.48
2023-04-24T05:29:49.568Z,11.57
2023-04-24T05:32:35.876Z,11.70
2023-04-24T05:35:21.478Z,12.13
2023-04-24T05:38:06.783Z,12.67
2023-04-24T05:40:52.465Z,13.12
2023-04-24T05:43:37.784Z,13.39
2023-04-24T05:46:23.308Z,13.51
2023-04-24T05:49:08.881Z,13.84
2023-04-24T05:51:54.692Z,14.13
2023-04-24T05:54:40.442Z,14.62
2023-04-24T05:57:26.024Z,15.21
2023-04-24T06:00:13.038Z,15.20
2023-04-24T06:02:58.530Z,15.10
2023-04-24T06:05:44.123Z,15.37
2023-04-24T06:08:29.713Z,15.79
2023-04-24T06:11:15.319Z,16.26
2023-04-24T06:14:00.936Z,16.85
2023-04-24T06:16:48.345Z,17.15
2023-04-24T06:19:35.484Z,17.42
2023-04-24T06:22:21.303Z,17.43
2023-04-24T06:25:08.184Z,17.76
2023-04-24T06:27:53.993Z,17.57
2023-04-24T06:30:39.638Z,17.15
2023-04-24T06:33:25.293Z,16.57
2023-04-24T06:36:11.443Z,16.46
2023-04-24T06:38:57.640Z,16.86
2023-04-24T06:41:43.183Z,17.27
2023-04-24T06:44:29.068Z,16.73
2023-04-24T06:47:14.696Z,16.64
2023-04-24T06:50:00.307Z,16.51
2023-04-24T06:52:45.967Z,16.43
2023-04-24T06:55:31.765Z,16.15
2023-04-24T06:58:19.722Z,16.14
2023-04-24T07:01:05.686Z,16.22
2023-04-24T07:03:51.710Z,16.63
2023-04-24T07:06:38.427Z,16.45
2023-04-24T07:09:26.259Z,16.81
2023-04-24T07:12:12.966Z,17.71
2023-04-24T07:14:58.726Z,18.15
2023-04-24T07:17:45.280Z,18.17
2023-04-24T07:20:30.642Z,18.49
2023-04-24T07:23:16.573Z,18.99
2023-04-24T07:26:02.026Z,18.32
2023-04-24T07:28:47.696Z,17.36
2023-04-24T07:31:33.434Z,17.26
2023-04-24T07:34:18.993Z,17.33
2023-04-24T07:37:04.720Z,17.54
2023-04-24T07:39:50.335Z,18.03
2023-04-24T07:42:37.275Z,18.33
2023-04-24T07:45:24.316Z,18.57
2023-04-24T07:48:10.097Z,18.70
2023-04-24T07:50:56.076Z,18.66
2023-04-24T07:53:41.928Z,18.33
2023-04-24T07:56:28.139Z,18.03
2023-04-24T07:59:13.622Z,17.97
2023-04-24T08:01:59.089Z,18.13
2023-04-24T08:04:45.062Z,17.87
2023-04-24T08:07:31.089Z,17.69
2023-04-24T08:10:16.477Z,17.19
2023-04-24T08:13:01.821Z,16.61
2023-04-24T08:15:47.420Z,16.67
2023-04-24T08:18:32.943Z,16.71
2023-04-24T08:21:19.589Z,16.98
2023-04-24T08:24:09.155Z,17.07
2023-04-24T08:26:55.038Z,17.05
2023-04-24T08:29:40.634Z,17.14
2023-04-24T08:32:28.647Z,17.13
2023-04-24T08:35:14.054Z,17.32
2023-04-24T08:37:59.371Z,17.03
2023-04-24T08:40:46.913Z,16.55
2023-04-24T08:43:34.255Z,16.17
2023-04-24T08:46:20.717Z,15.77
2023-04-24T08:49:06.332Z,15.75
2023-04-24T08:51:53.201Z,15.72
2023-04-24T08:54:39.743Z,15.78
2023-04-24T08:57:25.839Z,15.85
2023-04-24T09:00:12.284Z,15.60
2023-04-24T09:02:58.766Z,15.42
2023-04-24T09:05:50.651Z,15.58
2023-04-24T09:08:37.099Z,15.76
2023-04-24T09:11:25.207Z,15.91
2023-04-24T09:14:11.145Z,16.02
2023-04-24T09:16:56.392Z,16.37
2023-04-24T09:19:43.162Z,18.02
2023-04-24T09:22:32.073Z,18.07
2023-04-24T09:25:17.584Z,17.55
2023-04-24T09:28:05.332Z,17.46
2023-04-24T09:31:05.268Z,17.51
2023-04-24T09:34:01.196Z,17.95
2023-04-24T09:36:47.064Z,17.58
2023-04-24T09:39:32.637Z,18.22
2023-04-24T09:42:18.288Z,20.44
2023-04-24T09:45:11.888Z,20.88
2023-04-24T09:48:01.298Z,19.85
2023-04-24T09:50:53.046Z,19.20
2023-04-24T09:53:40.303Z,19.09
2023-04-24T09:56:27.055Z,19.63
2023-04-24T09:59:13.957Z,20.05
2023-04-24T10:02:00.879Z,19.85
2023-04-24T10:04:56.957Z,21.03
2023-04-24T10:07:44.351Z,23.88
2023-04-24T10:10:30.879Z,22.21
2023-04-24T10:13:16.628Z,20.70
2023-04-24T10:16:04.237Z,19.02
2023-04-24T10:18:49.992Z,18.69
2023-04-24T10:21:38.595Z,19.33
2023-04-24T10:24:24.132Z,21.86
2023-04-24T10:27:10.493Z,23.71
2023-04-24T10:29:56.129Z,23.44
2023-04-24T10:32:41.456Z,22.17
2023-04-24T10:35:27.767Z,21.28
2023-04-24T10:38:14.391Z,20.84
2023-04-24T10:41:10.597Z,24.05
2023-04-24T10:44:10.763Z,27.38
2023-04-24T10:46:56.687Z,27.34
2023-04-24T10:49:43.229Z,24.60
2023-04-24T10:52:45.960Z,24.58
2023-04-24T10:55:43.836Z,23.19
2023-04-24T10:58:55.113Z,21.06
2023-04-24T11:01:40.452Z,20.91
2023-04-24T11:04:33.837Z,23.24
2023-04-24T11:07:21.790Z,26.24
2023-04-24T11:10:07.673Z,27.88
2023-04-24T11:12:53.009Z,29.18
2023-04-24T11:15:38.319Z,26.28
2023-04-24T11:18:24.150Z,27.71
2023-04-24T11:21:13.798Z,27.50
2023-04-24T11:23:59.549Z,28.10
2023-04-24T11:26:45.926Z,24.91
2023-04-24T11:29:51.243Z,23.28
2023-04-24T11:32:42.460Z,22.52
2023-04-24T11:35:29.605Z,21.33
2023-04-24T11:38:24.001Z,20.32
2023-04-24T11:41:10.900Z,19.84
2023-04-24T11:43:58.266Z,19.32
2023-04-24T11:46:43.947Z,19.05
2023-04-24T11:49:29.574Z,18.58
2023-04-24T11:52:16.876Z,18.49
2023-04-24T11:55:02.879Z,18.31
2023-04-24T11:57:49.631Z,18.01
2023-04-24T12:00:35.391Z,17.67
2023-04-24T12:03:21.505Z,17.42
2023-04-24T12:06:11.033Z,17.37
2023-04-24T12:09:04.561Z,17.69
2023-04-24T12:11:57.924Z,17.82
2023-04-24T12:14:50.835Z,17.81
2023-04-24T12:17:37.688Z,17.90
2023-04-24T12:20:28.731Z,17.78
2023-04-24T12:23:14.183Z,17.54
2023-04-24T12:26:02.338Z,17.20
2023-04-24T12:28:50.157Z,16.82
2023-04-24T12:31:36.110Z,16.42
2023-04-24T12:34:22.743Z,16.40
2023-04-24T12:37:12.381Z,16.27
2023-04-24T12:40:09.683Z,16.26
2023-04-24T12:42:56.251Z,16.33
2023-04-24T12:45:43.095Z,16.56
2023-04-24T12:48:29.567Z,16.49
2023-04-24T12:51:15.237Z,16.74
2023-04-24T12:54:00.906Z,16.82
2023-04-24T12:56:46.510Z,16.72
2023-04-24T12:59:31.986Z,16.35
2023-04-24T13:02:20.549Z,16.09
2023-04-24T13:05:06.807Z,15.97
2023-04-24T13:07:52.244Z,15.68
2023-04-24T13:10:37.689Z,15.47
2023-04-24T13:13:23.177Z,16.98
2023-04-24T13:16:08.824Z,17.70
2023-04-24T13:18:54.169Z,17.19
2023-04-24T13:21:39.585Z,16.81
2023-04-24T13:24:26.033Z,16.29
2023-04-24T13:27:11.654Z,15.91
2023-04-24T13:29:57.445Z,15.68
2023-04-24T13:32:43.008Z,15.67
2023-04-24T13:35:28.763Z,15.67
2023-04-24T13:38:14.521Z,16.44
2023-04-24T13:41:01.138Z,17.05
2023-04-24T13:43:46.852Z,17.40
2023-04-24T13:46:32.364Z,17.31
2023-04-24T13:49:17.796Z,16.80
2023-04-24T13:52:03.770Z,16.38
2023-04-24T13:54:49.253Z,16.29
2023-04-24T13:57:34.998Z,16.55
2023-04-24T14:00:20.704Z,16.79
2023-04-24T14:03:06.743Z,17.35
2023-04-24T14:05:52.710Z,17.09
2023-04-24T14:08:38.259Z,16.92
2023-04-24T14:11:23.943Z,16.48
2023-04-24T14:14:09.406Z,16.05
2023-04-24T14:16:55.087Z,15.71
2023-04-24T14:19:40.672Z,15.66
2023-04-24T14:22:25.978Z,15.69
2023-04-24T14:25:12.044Z,15.42
2023-04-24T14:27:57.581Z,15.24
2023-04-24T14:30:43.358Z,15.24
2023-04-24T14:33:28.761Z,16.69
2023-04-24T14:36:14.285Z,19.33
2023-04-24T14:38:59.776Z,18.32
2023-04-24T14:41:45.240Z,16.91
2023-04-24T14:44:30.557Z,16.20
2023-04-24T14:47:18.272Z,15.68
2023-04-24T14:50:04.640Z,15.50
2023-04-24T14:52:49.935Z,15.13
2023-04-24T14:55:37.110Z,14.87
2023-04-24T14:58:22.973Z,14.63
2023-04-24T15:01:08.357Z,14.35
2023-04-24T15:03:54.064Z,14.14
2023-04-24T15:06:39.973Z,13.89
2023-04-24T15:09:26.482Z,13.68
2023-04-24T15:12:13.235Z,13.32
2023-04-24T15:14:59.798Z,12.88
2023-04-24T15:17:45.594Z,12.37
2023-04-24T15:20:31.484Z,12.12
2023-04-24T15:23:17.198Z,11.90
2023-04-24T15:26:02.892Z,11.78
2023-04-24T15:28:48.634Z,11.63
2023-04-24T15:31:34.210Z,11.64
2023-04-24T15:34:19.601Z,11.34
2023-04-24T15:37:05.280Z,11.07
2023-04-24T15:39:51.623Z,11.06
2023-04-24T15:42:37.264Z,11.05
2023-04-24T15:45:23.259Z,10.92
2023-04-24T15:48:08.945Z,10.94
2023-04-24T15:50:54.369Z,10.74
2023-04-24T15:53:39.789Z,10.64
2023-04-24T15:56:25.118Z,10.64
2023-04-24T15:59:10.782Z,10.60
2023-04-24T16:01:56.490Z,10.59
2023-04-24T16:04:42.239Z,10.54
2023-04-24T16:07:27.718Z,10.69
2023-04-24T16:10:13.070Z,10.53
2023-04-24T16:13:00.909Z,10.52
2023-04-24T16:15:46.730Z,10.43
2023-04-24T16:18:32.238Z,10.57
2023-04-24T16:21:17.761Z,10.65
2023-04-24T16:24:03.126Z,10.63
2023-04-24T16:26:49.231Z,10.66
2023-04-24T16:29:34.837Z,10.63
2023-04-24T16:32:20.332Z,10.54
2023-04-24T16:35:05.977Z,10.46
2023-04-24T16:37:51.271Z,10.52
2023-04-24T16:40:36.807Z,10.63
2023-04-24T16:43:22.544Z,10.55
2023-04-24T16:46:08.125Z,10.82
2023-04-24T16:48:53.481Z,10.78
2023-04-24T16:51:38.852Z,10.73
2023-04-24T16:54:24.600Z,10.76
2023-04-24T16:57:09.970Z,10.92
2023-04-24T16:59:55.829Z,10.80
2023-04-24T17:02:41.437Z,10.77
2023-04-24T17:05:27.033Z,10.68
2023-04-24T17:08:13.337Z,10.56
2023-04-24T17:10:58.735Z,10.53
2023-04-24T17:13:44.267Z,10.50
2023-04-24T17:16:30.070Z,10.40
2023-04-24T17:19:15.596Z,10.18
2023-04-24T17:22:01.238Z,10.14
2023-04-24T17:24:51.947Z,10.06
2023-04-24T17:27:37.262Z,9.96
2023-04-24T17:30:22.815Z,9.79
2023-04-24T17:33:08.121Z,9.77
2023-04-24T17:35:54.232Z,9.77
2023-04-24T17:38:39.869Z,9.94
2023-04-24T17:41:25.524Z,10.02
2023-04-24T17:44:11.031Z,9.98
2023-04-24T17:46:56.529Z,9.99
2023-04-24T17:49:43.504Z,9.96
2023-04-24T17:52:29.161Z,9.91
2023-04-24T17:55:15.993Z,10.03
2023-04-24T17:58:03.013Z,9.93
2023-04-24T18:00:48.390Z,9.90
2023-04-24T18:03:34.058Z,9.88
2023-04-24T18:06:19.844Z,9.87
2023-04-24T18:09:05.329Z,9.89
2023-04-24T18:11:50.642Z,9.92
2023-04-24T18:14:35.941Z,9.91
2023-04-24T18:17:21.518Z,9.92
2023-04-24T18:20:07.495Z,9.94
2023-04-24T18:22:54.241Z,9.96
2023-04-24T18:25:39.904Z,9.89
2023-04-24T18:28:25.403Z,9.93
2023-04-24T18:31:10.955Z,9.96
2023-04-24T18:33:56.394Z,9.95
2023-04-24T18:36:42.373Z,9.96
2023-04-24T18:39:27.996Z,10.02
2023-04-24T18:42:13.374Z,10.05
2023-04-24T18:45:01.842Z,10.01
2023-04-24T18:47:47.885Z,9.99
2023-04-24T18:50:33.767Z,10.01
2023-04-24T18:53:19.719Z,9.99
2023-04-24T18:56:05.637Z,9.98
2023-04-24T18:58:52.120Z,10.10
2023-04-24T19:01:39.034Z,10.08
2023-04-24T19:04:24.609Z,10.06
2023-04-24T19:07:10.544Z,10.07
2023-04-24T19:09:56.131Z,10.05
2023-04-24T19:12:41.923Z,9.97
2023-04-24T19:15:29.622Z,9.95
2023-04-24T19:18:17.114Z,10.04
2023-04-24T19:21:02.666Z,10.07
2023-04-24T19:23:50.311Z,10.06
2023-04-24T19:26:35.700Z,10.04
2023-04-24T19:29:21.058Z,9.97
2023-04-24T19:32:06.831Z,9.99
2023-04-24T19:34:52.206Z,9.99
2023-04-24T19:37:38.386Z,9.89
2023-04-24T19:40:24.212Z,9.98
2023-04-24T19:43:09.892Z,10.00
2023-04-24T19:45:55.502Z,9.97
2023-04-24T19:48:40.852Z,10.03
2023-04-24T19:51:27.557Z,10.00
2023-04-24T19:54:13.571Z,10.01
2023-04-24T19:56:59.064Z,10.05
2023-04-24T19:59:44.870Z,9.99
2023-04-24T20:02:31.062Z,10.03
2023-04-24T20:05:16.593Z,10.00
2023-04-24T20:08:02.001Z,9.95
2023-04-24T20:10:47.391Z,10.00
2023-04-24T20:13:33.086Z,9.98
2023-04-24T20:16:18.438Z,9.98
2023-04-24T20:19:03.897Z,9.99
2023-04-24T20:21:49.572Z,9.94
2023-04-24T20:24:35.117Z,9.97
2023-04-24T20:27:20.827Z,9.98
2023-04-24T20:30:12.678Z,9.93
2023-04-24T20:32:58.358Z,9.95
2023-04-24T20:35:43.826Z,9.94
2023-04-24T20:38:29.505Z,9.90
2023-04-24T20:41:15.977Z,9.82
2023-04-24T20:44:01.684Z,9.85
2023-04-24T20:46:47.184Z,9.95
2023-04-24T20:49:32.994Z,9.96
2023-04-24T20:52:18.469Z,9.86
2023-04-24T20:55:04.151Z,9.92
2023-04-24T20:57:49.707Z,9.86
2023-04-24T21:00:35.166Z,9.91
2023-04-24T21:03:21.230Z,9.87
2023-04-24T21:06:07.323Z,9.94
2023-04-24T21:08:52.741Z,9.93
2023-04-24T21:11:38.361Z,9.76
2023-04-24T21:14:24.082Z,9.75
2023-04-24T21:17:09.675Z,9.70
2023-04-24T21:19:56.483Z,9.76
2023-04-24T21:22:42.257Z,9.73
2023-04-24T21:25:28.652Z,9.68
2023-04-24T21:28:14.396Z,9.67
2023-04-24T21:30:59.965Z,9.65
2023-04-24T21:33:45.673Z,9.67
2023-04-24T21:36:32.731Z,9.67
2023-04-24T21:39:18.428Z,9.70
2023-04-24T21:42:03.992Z,9.65
2023-04-24T21:44:49.252Z,9.63
2023-04-24T21:47:34.955Z,9.64
2023-04-24T21:50:20.360Z,9.67
2023-04-24T21:53:05.916Z,9.63
2023-04-24T21:55:51.838Z,9.64
2023-04-24T21:58:37.541Z,9.67
2023-04-24T22:01:22.936Z,9.61
2023-04-24T22:04:08.688Z,9.68
2023-04-24T22:06:54.300Z,9.66
2023-04-24T22:09:40.170Z,9.66
2023-04-24T22:12:25.521Z,9.59
2023-04-24T22:15:11.019Z,9.50
2023-04-24T22:17:57.490Z,9.42
2023-04-24T22:20:44.017Z,9.38
2023-04-24T22:23:29.781Z,9.37
2023-04-24T22:26:15.209Z,9.41
2023-04-24T22:29:01.234Z,9.27
2023-04-24T22:31:46.843Z,9.12
2023-04-24T22:34:32.123Z,9.09
2023-04-24T22:37:17.725Z,9.07
2023-04-24T22:40:03.490Z,9.03
2023-04-24T22:42:49.162Z,9.10
2023-04-24T22:45:34.812Z,9.07
2023-04-24T22:48:20.371Z,9.07
2023-04-24T22:51:06.556Z,9.06
2023-04-24T22:53:52.007Z,9.09
2023-04-24T22:56:37.906Z,9.00
2023-04-24T22:59:23.859Z,8.94
2023-04-24T23:02:09.201Z,8.98
2023-04-24T23:04:55.142Z,8.98
2023-04-24T23:07:40.737Z,8.97
2023-04-24T23:10:26.533Z,8.95
2023-04-24T23:13:12.205Z,9.02
2023-04-24T23:15:57.772Z,9.03
2023-04-24T23:18:43.187Z,8.95
2023-04-24T23:21:28.768Z,8.93
2023-04-24T23:24:14.352Z,8.91
2023-04-24T23:27:01.713Z,8.94
2023-04-24T23:29:46.997Z,9.02
2023-04-24T23:32:32.638Z,8.99
2023-04-24T23:35:17.883Z,8.94
2023-04-24T23:38:03.529Z,8.92
2023-04-24T23:40:51.822Z,8.95
2023-04-24T23:43:37.425Z,9.07
2023-04-24T23:46:22.937Z,9.05
2023-04-24T23:49:09.051Z,8.98
2023-04-24T23:51:54.876Z,9.03
2023-04-24T23:54:40.209Z,9.07
2023-04-24T23:57:25.687Z,9.06
